createdAt,value
2018-07-11T00:02:21.983Z,13.00
2018-07-11T00:04:51.279Z,14.10
2018-07-11T00:07:20.403Z,11.37
2018-07-11T00:09:49.615Z,12.17
2018-07-11T00:12:18.827Z,12.47
2018-07-11T00:14:48.048Z,11.83
2018-07-11T00:17:17.344Z,11.00
2018-07-11T00:19:46.665Z,13.73
2018-07-11T00:22:16.753Z,13.37
2018-07-11T00:24:46.200Z,12.07
2018-07-11T00:27:15.409Z,11.10
2018-07-11T00:29:44.876Z,12.87
2018-07-11T00:32:14.134Z,11.63
2018-07-11T00:34:43.358Z,11.07
2018-07-11T00:37:12.626Z,12.87
2018-07-11T00:39:41.767Z,11.03
2018-07-11T00:42:11.120Z,11.27
2018-07-11T00:44:40.735Z,10.80
2018-07-11T00:47:10.455Z,10.80
2018-07-11T00:49:39.741Z,11.17
2018-07-11T00:52:09.084Z,11.57
2018-07-11T00:54:38.232Z,14.43
2018-07-11T00:57:07.462Z,10.57
2018-07-11T00:59:38.983Z,11.73
2018-07-11T01:02:08.203Z,10.30
2018-07-11T01:04:37.755Z,11.47
2018-07-11T01:07:07.620Z,11.10
2018-07-11T01:09:44.435Z,11.90
2018-07-11T01:12:13.330Z,12.87
2018-07-11T01:14:42.672Z,11.53
2018-07-11T01:17:17.196Z,11.07
2018-07-11T01:19:47.167Z,11.40
2018-07-11T01:22:16.561Z,10.73
2018-07-11T01:24:45.894Z,11.17
2018-07-11T01:27:14.963Z,10.40
2018-07-11T01:29:44.187Z,10.70
2018-07-11T01:32:13.432Z,9.97
2018-07-11T01:34:42.744Z,10.33
2018-07-11T01:37:11.732Z,11.30
2018-07-11T01:39:41.046Z,11.43
2018-07-11T01:42:10.183Z,10.40
2018-07-11T01:44:39.571Z,11.17
2018-07-11T01:47:08.750Z,10.90
2018-07-11T01:49:38.754Z,10.50
2018-07-11T01:52:19.056Z,10.33
2018-07-11T01:54:48.875Z,10.57
2018-07-11T01:57:18.160Z,10.63
2018-07-11T01:59:47.644Z,10.30
2018-07-11T02:02:17.014Z,10.77
2018-07-11T02:04:46.358Z,14.57
2018-07-11T02:07:15.472Z,11.60
2018-07-11T02:09:44.701Z,11.47
2018-07-11T02:12:14.233Z,12.17
2018-07-11T02:14:47.753Z,13.30
2018-07-11T02:17:16.851Z,12.27
2018-07-11T02:19:45.991Z,11.57
2018-07-11T02:22:15.480Z,11.03
2018-07-11T02:24:44.115Z,12.50
2018-07-11T02:27:13.447Z,15.07
2018-07-11T02:29:42.499Z,11.03
2018-07-11T02:32:11.885Z,12.13
2018-07-11T02:34:41.090Z,10.80
2018-07-11T02:37:10.571Z,10.47
2018-07-11T02:39:40.162Z,10.10
2018-07-11T02:42:08.794Z,14.40
2018-07-11T02:44:38.151Z,13.30
2018-07-11T02:47:13.639Z,12.37
2018-07-11T02:49:43.786Z,15.93
2018-07-11T02:52:12.829Z,13.27
2018-07-11T02:54:42.148Z,15.57
2018-07-11T02:57:11.337Z,13.23
2018-07-11T02:59:40.735Z,13.53
2018-07-11T03:02:09.894Z,12.50
2018-07-11T03:04:39.344Z,11.83
2018-07-11T03:07:09.441Z,12.67
2018-07-11T03:09:39.043Z,13.07
2018-07-11T03:12:08.675Z,13.80
2018-07-11T03:14:41.991Z,13.53
2018-07-11T03:17:12.755Z,11.97
2018-07-11T03:19:41.935Z,13.97
2018-07-11T03:22:11.126Z,12.20
2018-07-11T03:24:40.273Z,13.40
2018-07-11T03:27:09.751Z,14.77
2018-07-11T03:29:39.338Z,17.03
2018-07-11T03:32:08.421Z,13.97
2018-07-11T03:34:37.662Z,13.63
2018-07-11T03:37:06.495Z,13.17
2018-07-11T03:39:35.674Z,12.47
2018-07-11T03:42:05.165Z,12.73
2018-07-11T03:44:34.176Z,12.73
2018-07-11T03:47:03.456Z,13.90
2018-07-11T03:49:32.907Z,14.00
2018-07-11T03:52:02.512Z,16.43
2018-07-11T03:54:31.859Z,16.10
2018-07-11T03:57:01.003Z,13.90
2018-07-11T03:59:30.100Z,15.13
2018-07-11T04:01:59.347Z,15.27
2018-07-11T04:04:28.787Z,14.33
2018-07-11T04:06:58.717Z,17.13
2018-07-11T04:09:28.101Z,13.53
2018-07-11T04:11:57.196Z,19.40
2018-07-11T04:14:26.403Z,14.43
2018-07-11T04:16:55.559Z,15.03
2018-07-11T04:19:25.056Z,15.53
2018-07-11T04:21:54.159Z,17.40
2018-07-11T04:24:23.603Z,17.50
2018-07-11T04:26:52.938Z,14.67
2018-07-11T04:29:22.069Z,14.93
2018-07-11T04:31:51.703Z,12.03
2018-07-11T04:34:21.756Z,12.37
2018-07-11T04:36:51.091Z,15.67
2018-07-11T04:39:20.336Z,13.00
2018-07-11T04:41:49.436Z,12.50
2018-07-11T04:44:18.630Z,13.60
2018-07-11T04:46:47.657Z,12.87
2018-07-11T04:49:16.869Z,15.73
2018-07-11T04:51:47.043Z,14.37
2018-07-11T04:54:17.329Z,11.90
2018-07-11T04:56:46.559Z,13.13
2018-07-11T04:59:15.705Z,13.33
2018-07-11T05:01:45.231Z,12.90
2018-07-11T05:04:14.261Z,13.77
2018-07-11T05:06:42.865Z,13.47
2018-07-11T05:09:12.411Z,13.97
2018-07-11T05:11:41.588Z,22.80
2018-07-11T05:14:10.656Z,14.53
2018-07-11T05:16:39.976Z,14.37
2018-07-11T05:19:09.359Z,13.67
2018-07-11T05:21:38.619Z,14.87
2018-07-11T05:24:07.754Z,19.13
2018-07-11T05:26:36.967Z,13.00
2018-07-11T05:29:06.427Z,11.80
2018-07-11T05:31:35.607Z,13.47
2018-07-11T05:34:04.813Z,10.07
2018-07-11T05:36:34.120Z,11.77
2018-07-11T05:39:03.743Z,10.10
2018-07-11T05:41:34.651Z,11.77
2018-07-11T05:44:03.738Z,8.37
2018-07-11T05:46:32.912Z,7.80
2018-07-11T05:49:02.371Z,8.60
2018-07-11T05:51:31.536Z,7.10
2018-07-11T05:54:01.043Z,7.70
2018-07-11T05:56:30.809Z,9.53
2018-07-11T05:59:00.085Z,9.60
2018-07-11T06:01:29.328Z,10.10
2018-07-11T06:03:58.664Z,14.50
2018-07-11T06:06:27.705Z,16.20
2018-07-11T06:08:57.117Z,13.80
2018-07-11T06:11:26.379Z,9.80
2018-07-11T06:13:55.847Z,9.03
2018-07-11T06:16:25.459Z,11.23
2018-07-11T06:18:54.649Z,14.33
2018-07-11T06:21:26.058Z,10.63
2018-07-11T06:23:55.503Z,10.53
2018-07-11T06:26:24.928Z,10.10
2018-07-11T06:28:54.107Z,9.90
2018-07-11T06:31:23.673Z,22.27
2018-07-11T06:33:52.762Z,15.67
2018-07-11T06:36:22.036Z,13.90
2018-07-11T06:38:51.180Z,10.97
2018-07-11T06:41:20.649Z,11.90
2018-07-11T06:43:49.805Z,7.67
2018-07-11T06:46:19.388Z,7.60
2018-07-11T06:48:48.815Z,8.13
2018-07-11T06:51:18.284Z,8.20
2018-07-11T06:53:47.677Z,8.60
2018-07-11T06:56:17.079Z,16.37
2018-07-11T06:58:46.919Z,12.97
2018-07-11T07:01:17.529Z,8.80
2018-07-11T07:03:46.678Z,9.87
2018-07-11T07:06:15.717Z,7.97
2018-07-11T07:08:44.976Z,9.37
2018-07-11T07:11:14.098Z,9.53
2018-07-11T07:13:43.579Z,9.40
2018-07-11T07:16:13.262Z,10.67
2018-07-11T07:18:43.027Z,13.93
2018-07-11T07:21:12.257Z,12.87
2018-07-11T07:23:41.435Z,11.10
2018-07-11T07:26:10.677Z,12.70
2018-07-11T07:28:39.788Z,9.77
2018-07-11T07:31:09.241Z,9.97
2018-07-11T07:33:38.581Z,14.03
2018-07-11T07:36:07.779Z,12.83
2018-07-11T07:38:40.463Z,10.03
2018-07-11T07:41:10.397Z,13.37
2018-07-11T07:43:40.780Z,14.03
2018-07-11T07:46:09.920Z,14.03
2018-07-11T07:48:39.139Z,20.27
2018-07-11T07:51:08.247Z,11.27
2018-07-11T07:53:38.424Z,12.53
2018-07-11T07:56:07.600Z,8.67
2018-07-11T07:58:38.093Z,9.40
2018-07-11T08:01:08.479Z,9.63
2018-07-11T08:03:38.875Z,9.57
2018-07-11T08:06:08.240Z,11.27
2018-07-11T08:08:37.612Z,5.45
2018-07-11T08:11:06.980Z,7.33
2018-07-11T08:13:36.366Z,11.57
2018-07-11T08:16:05.382Z,10.80
2018-07-11T08:18:34.913Z,8.75
2018-07-11T08:21:04.115Z,7.22
2018-07-11T08:23:44.037Z,6.72
2018-07-11T08:26:24.413Z,6.92
2018-07-11T08:30:33.320Z,6.42
2018-07-11T08:33:26.388Z,9.55
2018-07-11T08:37:18.821Z,5.97
2018-07-11T08:40:29.315Z,6.20
2018-07-11T08:46:13.720Z,8.63
2018-07-11T08:48:54.254Z,7.62
2018-07-11T08:52:36.513Z,9.43
2018-07-11T08:55:21.916Z,7.20
2018-07-11T09:00:03.576Z,6.22
2018-07-11T09:03:45.143Z,6.85
2018-07-11T09:08:26.769Z,7.22
2018-07-11T09:11:04.503Z,13.85
2018-07-11T09:13:44.843Z,15.03
2018-07-11T09:17:25.671Z,10.15
2018-07-11T09:20:25.884Z,10.20
2018-07-11T09:24:12.333Z,8.38
2018-07-11T09:26:41.504Z,9.28
2018-07-11T09:29:11.035Z,9.18
2018-07-11T09:31:40.667Z,11.22
2018-07-11T09:34:09.865Z,9.78
2018-07-11T09:36:38.985Z,9.78
2018-07-11T09:39:08.640Z,9.95
2018-07-11T09:41:37.984Z,10.03
2018-07-11T09:44:07.572Z,14.20
2018-07-11T09:46:36.914Z,11.60
2018-07-11T09:49:06.448Z,14.07
2018-07-11T09:51:35.903Z,17.65
2018-07-11T09:54:05.125Z,14.18
2018-07-11T09:56:34.641Z,12.00
2018-07-11T09:59:03.868Z,11.12
2018-07-11T10:01:32.515Z,10.95
2018-07-11T10:04:01.943Z,24.55
2018-07-11T10:06:31.139Z,26.55
2018-07-11T10:09:00.964Z,11.97
2018-07-11T10:11:30.181Z,13.03
2018-07-11T10:13:59.333Z,18.05
2018-07-11T10:16:28.561Z,33.45
2018-07-11T10:18:59.523Z,20.90
2018-07-11T10:21:29.931Z,11.25
2018-07-11T10:23:59.311Z,9.88
2018-07-11T10:26:28.179Z,8.45
2018-07-11T10:28:57.500Z,10.93
2018-07-11T10:31:27.755Z,8.70
2018-07-11T10:33:56.952Z,11.63
2018-07-11T10:36:26.279Z,9.63
2018-07-11T10:38:55.940Z,9.13
2018-07-11T10:41:25.237Z,10.03
2018-07-11T10:43:53.892Z,13.63
2018-07-11T10:46:23.232Z,91.27
2018-07-11T10:48:52.800Z,48.07
2018-07-11T10:51:21.847Z,141.97
2018-07-11T10:53:51.135Z,916.23
2018-07-11T10:56:20.604Z,934.55
2018-07-11T10:58:49.764Z,465.77
2018-07-11T11:01:19.232Z,288.57
2018-07-11T11:03:48.362Z,30.80
2018-07-11T11:06:17.996Z,22.40
2018-07-11T11:08:47.414Z,20.48
2018-07-11T11:11:16.655Z,19.63
2018-07-11T11:13:45.969Z,16.33
2018-07-11T11:16:15.020Z,39.37
2018-07-11T11:18:44.301Z,18.43
2018-07-11T11:21:13.787Z,21.53
2018-07-11T11:23:43.076Z,19.50
2018-07-11T11:26:12.240Z,21.03
2018-07-11T11:28:41.240Z,20.00
2018-07-11T11:31:10.883Z,18.60
2018-07-11T11:33:40.204Z,20.20
2018-07-11T11:36:09.866Z,19.37
2018-07-11T11:38:39.035Z,18.33
2018-07-11T11:41:08.424Z,19.87
2018-07-11T11:43:37.969Z,24.50
2018-07-11T11:46:07.133Z,23.30
2018-07-11T11:48:36.280Z,25.50
2018-07-11T11:51:05.553Z,28.53
2018-07-11T11:53:35.063Z,30.80
2018-07-11T11:56:04.828Z,32.60
2018-07-11T11:58:33.989Z,31.57
2018-07-11T12:01:03.128Z,37.20
2018-07-11T12:03:32.508Z,35.07
2018-07-11T12:06:01.369Z,35.13
2018-07-11T12:08:30.945Z,31.90
2018-07-11T12:11:00.089Z,30.43
2018-07-11T12:13:29.012Z,28.50
2018-07-11T12:15:58.365Z,25.97
2018-07-11T12:18:27.999Z,26.23
2018-07-11T12:20:59.843Z,27.33
2018-07-11T12:23:29.684Z,34.07
2018-07-11T12:26:04.704Z,31.97
2018-07-11T12:28:33.899Z,28.20
2018-07-11T12:31:03.630Z,28.53
2018-07-11T12:33:33.116Z,26.47
2018-07-11T12:36:02.547Z,23.97
2018-07-11T12:38:31.657Z,26.00
2018-07-11T12:41:01.036Z,26.43
2018-07-11T12:43:30.214Z,26.57
2018-07-11T12:45:59.468Z,28.03
2018-07-11T12:48:34.307Z,23.40
2018-07-11T12:51:03.784Z,23.00
2018-07-11T12:53:33.132Z,20.90
2018-07-11T12:56:02.652Z,26.80
2018-07-11T12:58:32.011Z,26.33
2018-07-11T13:01:01.250Z,27.20
2018-07-11T13:03:30.654Z,25.20
2018-07-11T13:06:00.487Z,23.60
2018-07-11T13:08:29.781Z,25.87
2018-07-11T13:11:00.358Z,25.93
2018-07-11T13:13:29.605Z,30.37
2018-07-11T13:15:59.085Z,29.07
2018-07-11T13:18:28.324Z,33.80
2018-07-11T13:20:58.591Z,25.00
2018-07-11T13:23:28.148Z,25.30
2018-07-11T13:25:57.097Z,23.43
2018-07-11T13:28:26.344Z,18.30
2018-07-11T13:30:55.660Z,17.00
2018-07-11T13:33:25.088Z,17.27
2018-07-11T13:35:54.344Z,18.67
2018-07-11T13:38:23.928Z,20.13
2018-07-11T13:40:53.396Z,17.50
2018-07-11T13:43:22.558Z,15.40
2018-07-11T13:45:51.843Z,17.83
2018-07-11T13:48:21.137Z,18.13
2018-07-11T13:50:50.394Z,18.20
2018-07-11T13:53:19.596Z,21.90
2018-07-11T13:55:48.796Z,25.30
2018-07-11T13:58:17.756Z,22.73
2018-07-11T14:00:47.214Z,22.47
2018-07-11T14:03:16.340Z,17.80
2018-07-11T14:05:45.514Z,17.60
2018-07-11T14:08:14.519Z,17.80
2018-07-11T14:10:43.816Z,16.50
2018-07-11T14:13:13.307Z,21.77
2018-07-11T14:15:42.811Z,19.77
2018-07-11T14:18:12.194Z,21.40
2018-07-11T14:20:41.396Z,64.30
2018-07-11T14:23:10.580Z,25.77
2018-07-11T14:25:41.332Z,19.43
2018-07-11T14:28:10.717Z,18.37
2018-07-11T14:30:40.301Z,20.97
2018-07-11T14:33:10.129Z,27.90
2018-07-11T14:35:39.371Z,28.20
2018-07-11T14:38:08.724Z,24.03
2018-07-11T14:40:38.516Z,20.63
2018-07-11T14:43:08.629Z,23.80
2018-07-11T14:45:38.306Z,23.27
2018-07-11T14:48:13.927Z,33.17
2018-07-11T14:50:43.228Z,21.97
2018-07-11T14:53:12.524Z,21.13
2018-07-11T14:55:41.948Z,23.60
2018-07-11T14:58:11.501Z,24.87
2018-07-11T15:00:40.915Z,26.03
2018-07-11T15:03:10.170Z,22.10
2018-07-11T15:05:39.690Z,25.47
2018-07-11T15:08:08.865Z,24.13
2018-07-11T15:10:40.741Z,20.27
2018-07-11T15:13:10.325Z,25.70
2018-07-11T15:15:39.909Z,24.27
2018-07-11T15:18:10.774Z,24.47
2018-07-11T15:20:40.674Z,24.17
2018-07-11T15:23:10.235Z,57.67
2018-07-11T15:25:39.494Z,25.33
2018-07-11T15:28:09.100Z,25.83
2018-07-11T15:30:38.616Z,27.23
2018-07-11T15:33:08.852Z,26.93
2018-07-11T15:35:38.379Z,22.53
2018-07-11T15:38:07.733Z,22.70
2018-07-11T15:40:37.172Z,25.63
2018-07-11T15:43:06.584Z,33.10
2018-07-11T15:45:36.187Z,35.10
2018-07-11T15:48:05.577Z,32.23
2018-07-11T15:50:35.039Z,27.57
2018-07-11T15:53:04.367Z,26.00
2018-07-11T15:55:34.660Z,27.60
2018-07-11T15:58:07.304Z,28.77
2018-07-11T16:00:40.266Z,27.60
2018-07-11T16:03:10.588Z,23.77
2018-07-11T16:05:40.787Z,21.30
2018-07-11T16:08:10.046Z,188.23
2018-07-11T16:10:42.380Z,68.67
2018-07-11T16:13:12.577Z,30.23
2018-07-11T16:15:42.520Z,30.03
2018-07-11T16:18:12.149Z,28.87
2018-07-11T16:20:41.454Z,58.83
2018-07-11T16:23:11.535Z,39.77
2018-07-11T16:25:42.522Z,37.00
2018-07-11T16:28:12.075Z,24.10
2018-07-11T16:30:41.680Z,27.00
2018-07-11T16:33:10.867Z,32.30
2018-07-11T16:35:40.298Z,30.50
2018-07-11T16:38:09.926Z,28.13
2018-07-11T16:40:39.383Z,28.80
2018-07-11T16:43:08.792Z,33.83
2018-07-11T16:45:38.304Z,30.33
2018-07-11T16:48:07.584Z,27.30
2018-07-11T16:50:38.992Z,26.03
2018-07-11T16:53:08.921Z,25.13
2018-07-11T16:55:38.669Z,26.37
2018-07-11T16:58:08.050Z,29.33
2018-07-11T17:00:39.060Z,31.23
2018-07-11T17:03:12.621Z,29.67
2018-07-11T17:05:54.527Z,32.47
2018-07-11T17:08:31.194Z,31.93
2018-07-11T17:11:05.738Z,31.13
2018-07-11T17:13:35.111Z,31.33
2018-07-11T17:16:04.673Z,31.07
2018-07-11T17:18:40.915Z,29.13
2018-07-11T17:21:10.880Z,29.50
2018-07-11T17:23:47.780Z,29.20
2018-07-11T17:26:17.857Z,25.40
2018-07-11T17:28:47.767Z,31.47
2018-07-11T17:31:17.362Z,36.10
2018-07-11T17:33:46.772Z,30.63
2018-07-11T17:36:15.931Z,29.83
2018-07-11T17:38:48.543Z,31.03
2018-07-11T17:41:18.204Z,30.77
2018-07-11T17:43:53.991Z,31.27
2018-07-11T17:46:23.677Z,37.43
2018-07-11T17:49:06.737Z,27.13
2018-07-11T17:51:47.863Z,29.60
2018-07-11T17:54:17.316Z,28.40
2018-07-11T17:56:53.168Z,29.27
2018-07-11T17:59:43.366Z,29.40
2018-07-11T18:02:20.082Z,32.23
2018-07-11T18:05:01.891Z,32.37
2018-07-11T18:07:42.185Z,43.27
2018-07-11T18:10:15.282Z,43.67
2018-07-11T18:12:52.779Z,41.17
2018-07-11T18:16:42.990Z,47.17
2018-07-11T18:21:32.336Z,77.30
2018-07-11T18:26:15.038Z,60.70
2018-07-11T18:28:59.723Z,63.07
2018-07-11T18:31:44.988Z,48.77
2018-07-11T18:34:25.229Z,42.63
2018-07-11T18:38:03.495Z,39.43
2018-07-11T18:40:36.832Z,29.30
2018-07-11T18:45:20.602Z,29.23
2018-07-11T18:49:01.707Z,34.07
2018-07-11T18:51:40.559Z,36.60
2018-07-11T18:54:14.251Z,39.87
2018-07-11T18:57:10.019Z,37.83
2018-07-11T18:59:50.681Z,42.67
2018-07-11T19:02:37.040Z,46.00
2018-07-11T19:05:22.555Z,46.33
2018-07-11T19:10:02.595Z,47.70
2018-07-11T19:12:40.666Z,44.40
2018-07-11T19:15:15.625Z,49.37
2018-07-11T19:18:04.990Z,47.07
2018-07-11T19:21:18.084Z,48.73
2018-07-11T19:24:15.301Z,53.83
2018-07-11T19:27:28.376Z,56.50
2018-07-11T19:30:07.245Z,54.40
2018-07-11T19:32:50.315Z,51.77
2018-07-11T19:35:37.002Z,54.33
2018-07-11T19:38:52.825Z,58.23
2018-07-11T19:41:26.714Z,55.20
2018-07-11T19:46:08.525Z,150.40
2018-07-11T19:50:52.150Z,46.63
2018-07-11T19:53:30.598Z,45.90
2018-07-11T19:56:06.932Z,59.60
2018-07-11T19:58:36.181Z,62.73
2018-07-11T20:01:05.732Z,59.17
2018-07-11T20:03:35.282Z,58.93
2018-07-11T20:06:04.592Z,53.60
2018-07-11T20:08:34.222Z,24.83
2018-07-11T20:11:03.620Z,23.43
2018-07-11T20:13:34.552Z,19.43
2018-07-11T20:16:05.048Z,19.83
2018-07-11T20:18:34.775Z,20.30
2018-07-11T20:21:04.451Z,25.23
2018-07-11T20:23:33.660Z,19.27
2018-07-11T20:26:03.222Z,43.67
2018-07-11T20:28:32.853Z,29.80
2018-07-11T20:31:02.024Z,26.97
2018-07-11T20:33:32.217Z,21.30
2018-07-11T20:36:01.679Z,25.27
2018-07-11T20:38:30.593Z,23.93
2018-07-11T20:41:00.055Z,21.63
2018-07-11T20:43:29.650Z,16.00
2018-07-11T20:45:59.410Z,12.40
2018-07-11T20:48:28.920Z,11.10
2018-07-11T20:50:58.031Z,7.17
2018-07-11T20:53:27.717Z,7.17
2018-07-11T20:55:57.598Z,8.47
2018-07-11T21:00:41.571Z,9.47
2018-07-11T21:05:27.284Z,9.73
2018-07-11T21:09:35.283Z,11.10
2018-07-11T21:14:21.203Z,11.03
2018-07-11T21:19:05.055Z,12.00
2018-07-11T21:21:35.067Z,10.23
2018-07-11T21:24:04.823Z,11.47
2018-07-11T21:26:34.142Z,10.43
2018-07-11T21:29:03.392Z,10.17
2018-07-11T21:31:32.742Z,8.87
2018-07-11T21:34:02.216Z,9.73
2018-07-11T21:36:31.573Z,9.07
2018-07-11T21:39:01.019Z,9.57
2018-07-11T21:41:30.291Z,9.00
2018-07-11T21:43:59.614Z,8.20
2018-07-11T21:46:28.949Z,10.20
2018-07-11T21:48:58.228Z,15.27
2018-07-11T21:51:27.855Z,12.43
2018-07-11T21:53:57.388Z,9.43
2018-07-11T21:56:26.953Z,10.40
2018-07-11T21:58:56.105Z,9.97
2018-07-11T22:01:26.399Z,8.97
2018-07-11T22:03:55.560Z,8.07
2018-07-11T22:06:24.787Z,12.63
2018-07-11T22:08:54.064Z,11.63
2018-07-11T22:11:23.308Z,7.67
2018-07-11T22:13:53.204Z,8.13
2018-07-11T22:16:22.233Z,9.10
2018-07-11T22:18:51.873Z,8.13
2018-07-11T22:21:19.853Z,8.53
2018-07-11T22:23:47.628Z,12.07
2018-07-11T22:26:15.157Z,7.67
2018-07-11T22:28:42.783Z,10.63
2018-07-11T22:31:10.375Z,14.67
2018-07-11T22:33:38.139Z,9.27
2018-07-11T22:36:06.124Z,11.03
2018-07-11T22:38:33.871Z,10.13
2018-07-11T22:41:01.699Z,8.90
2018-07-11T22:43:29.553Z,11.73
2018-07-11T22:45:57.372Z,11.10
2018-07-11T22:48:25.135Z,10.77
2018-07-11T22:50:53.052Z,9.17
2018-07-11T22:53:21.306Z,8.20
2018-07-11T22:55:49.053Z,9.83
2018-07-11T22:58:17.307Z,11.13
2018-07-11T23:00:44.986Z,7.37
2018-07-11T23:03:12.846Z,9.93
2018-07-11T23:05:40.911Z,6.93
2018-07-11T23:08:09.027Z,10.37
2018-07-11T23:10:36.639Z,9.37
2018-07-11T23:13:04.231Z,11.93
2018-07-11T23:15:31.983Z,10.83
2018-07-11T23:17:59.865Z,8.90
2018-07-11T23:20:27.783Z,8.37
2018-07-11T23:22:55.448Z,12.47
2018-07-11T23:25:24.247Z,9.37
2018-07-11T23:27:52.136Z,9.43
2018-07-11T23:30:19.784Z,9.03
2018-07-11T23:32:47.493Z,7.73
2018-07-11T23:35:15.353Z,7.30
2018-07-11T23:37:43.144Z,6.57
2018-07-11T23:40:10.724Z,8.60
2018-07-11T23:42:38.724Z,8.20
2018-07-11T23:45:06.913Z,7.93
2018-07-11T23:47:34.635Z,7.40
2018-07-11T23:50:02.740Z,6.37
2018-07-11T23:52:30.250Z,7.07
2018-07-11T23:54:58.029Z,10.00
2018-07-11T23:57:25.926Z,9.00
2018-07-11T23:59:53.543Z,8.57
